createdAt,value
2023-05-14T00:00:54.590Z,13.80
2023-05-14T00:03:21.713Z,14.00
2023-05-14T00:05:48.945Z,12.90
2023-05-14T00:08:16.433Z,11.90
2023-05-14T00:10:43.461Z,11.50
2023-05-14T00:13:10.937Z,13.30
2023-05-14T00:15:38.279Z,13.80
2023-05-14T00:18:05.537Z,14.90
2023-05-14T00:20:32.716Z,15.00
2023-05-14T00:23:00.284Z,12.60
2023-05-14T00:25:27.478Z,13.10
2023-05-14T00:27:54.768Z,15.40
2023-05-14T00:30:21.959Z,15.00
2023-05-14T00:32:49.375Z,12.10
2023-05-14T00:35:16.420Z,13.80
2023-05-14T00:37:43.419Z,12.10
2023-05-14T00:40:13.176Z,13.40
2023-05-14T00:42:41.232Z,15.60
2023-05-14T00:45:08.733Z,13.40
2023-05-14T00:47:36.541Z,12.20
2023-05-14T00:50:04.137Z,13.00
2023-05-14T00:52:31.733Z,11.30
2023-05-14T00:54:59.033Z,12.00
2023-05-14T00:57:26.008Z,14.60
2023-05-14T00:59:53.134Z,15.60
2023-05-14T01:02:20.222Z,13.70
2023-05-14T01:04:47.291Z,12.70
2023-05-14T01:07:26.108Z,11.00
2023-05-14T01:10:03.401Z,15.70
2023-05-14T01:12:36.837Z,15.20
2023-05-14T01:15:11.464Z,12.50
2023-05-14T01:17:46.781Z,18.00
2023-05-14T01:20:13.928Z,16.30
2023-05-14T01:22:41.032Z,16.80
2023-05-14T01:25:08.669Z,16.20
2023-05-14T01:28:21.029Z,13.90
2023-05-14T01:30:56.424Z,14.50
2023-05-14T01:33:24.884Z,16.60
2023-05-14T01:35:53.933Z,15.60
2023-05-14T01:38:20.959Z,15.60
2023-05-14T01:40:48.584Z,16.60
2023-05-14T01:43:15.840Z,18.30
2023-05-14T01:45:43.855Z,15.60
2023-05-14T01:48:11.165Z,11.80
2023-05-14T01:50:38.751Z,14.00
2023-05-14T01:53:05.924Z,13.00
2023-05-14T01:55:32.984Z,13.30
2023-05-14T01:57:59.987Z,14.80
2023-05-14T02:00:27.235Z,15.70
2023-05-14T02:02:54.378Z,17.50
2023-05-14T02:05:23.425Z,17.80
2023-05-14T02:07:50.523Z,15.10
2023-05-14T02:10:17.622Z,15.60
2023-05-14T02:12:48.552Z,19.60
2023-05-14T02:15:15.654Z,18.80
2023-05-14T02:17:42.771Z,18.50
2023-05-14T02:20:11.843Z,19.70
2023-05-14T02:22:38.931Z,19.80
2023-05-14T02:25:06.811Z,18.00
2023-05-14T02:27:33.925Z,15.80
2023-05-14T02:30:01.182Z,16.50
2023-05-14T02:32:28.733Z,23.80
2023-05-14T02:34:55.993Z,18.80
2023-05-14T02:37:23.037Z,20.30
2023-05-14T02:39:50.119Z,20.40
2023-05-14T02:42:17.161Z,17.60
2023-05-14T02:44:44.181Z,17.70
2023-05-14T02:47:11.283Z,15.00
2023-05-14T02:49:38.392Z,17.70
2023-05-14T02:52:05.686Z,16.90
2023-05-14T02:54:32.679Z,21.30
2023-05-14T02:56:59.687Z,16.30
2023-05-14T02:59:26.968Z,19.00
2023-05-14T03:01:54.589Z,15.80
2023-05-14T03:04:22.169Z,18.30
2023-05-14T03:06:49.209Z,19.40
2023-05-14T03:09:16.350Z,19.10
2023-05-14T03:11:43.449Z,14.90
2023-05-14T03:14:10.462Z,17.10
2023-05-14T03:16:37.735Z,16.90
2023-05-14T03:19:04.868Z,17.30
2023-05-14T03:21:32.451Z,18.70
2023-05-14T03:23:59.606Z,13.70
2023-05-14T03:26:26.692Z,14.20
2023-05-14T03:28:53.739Z,19.90
2023-05-14T03:31:20.892Z,14.80
2023-05-14T03:33:47.884Z,22.70
2023-05-14T03:36:14.940Z,16.50
2023-05-14T03:38:41.920Z,19.30
2023-05-14T03:41:08.943Z,16.80
2023-05-14T03:43:36.624Z,19.10
2023-05-14T03:46:03.681Z,21.30
2023-05-14T03:48:30.812Z,19.50
2023-05-14T03:50:57.930Z,18.20
2023-05-14T03:53:24.990Z,17.20
2023-05-14T03:55:52.171Z,14.40
2023-05-14T03:58:19.253Z,17.70
2023-05-14T04:00:46.292Z,18.00
2023-05-14T04:03:13.432Z,16.80
2023-05-14T04:05:40.723Z,14.30
2023-05-14T04:08:07.869Z,14.30
2023-05-14T04:10:34.921Z,17.60
2023-05-14T04:13:01.973Z,19.10
2023-05-14T04:15:32.807Z,16.50
2023-05-14T04:17:59.888Z,15.80
2023-05-14T04:20:27.911Z,12.10
2023-05-14T04:22:55.700Z,8.00
2023-05-14T04:25:22.909Z,7.30
2023-05-14T04:27:50.020Z,6.10
2023-05-14T04:30:17.074Z,7.00
2023-05-14T04:32:44.573Z,8.60
2023-05-14T04:35:13.087Z,7.60
2023-05-14T04:37:40.701Z,7.30
2023-05-14T04:40:11.523Z,6.50
2023-05-14T04:42:39.194Z,8.10
2023-05-14T04:45:07.044Z,5.50
2023-05-14T04:47:34.151Z,7.60
2023-05-14T04:50:01.195Z,6.80
2023-05-14T04:52:28.305Z,6.50
2023-05-14T04:54:55.458Z,8.00
2023-05-14T04:57:22.557Z,6.80
2023-05-14T04:59:49.610Z,7.70
2023-05-14T05:02:16.616Z,5.90
2023-05-14T05:04:43.596Z,8.50
2023-05-14T05:07:10.935Z,6.10
2023-05-14T05:09:37.961Z,6.00
2023-05-14T05:12:05.620Z,5.80
2023-05-14T05:14:32.672Z,6.30
2023-05-14T05:16:59.671Z,5.20
2023-05-14T05:19:39.533Z,6.10
2023-05-14T05:22:07.111Z,7.30
2023-05-14T05:24:34.172Z,7.20
2023-05-14T05:27:01.214Z,7.50
2023-05-14T05:29:28.228Z,6.70
2023-05-14T05:31:55.318Z,6.50
2023-05-14T05:34:22.453Z,5.50
2023-05-14T05:36:49.506Z,8.00
2023-05-14T05:39:16.761Z,6.40
2023-05-14T05:41:44.500Z,5.00
2023-05-14T05:44:11.510Z,6.80
2023-05-14T05:46:38.652Z,8.40
2023-05-14T05:49:05.734Z,6.20
2023-05-14T05:51:33.357Z,7.40
2023-05-14T05:54:00.573Z,6.90
2023-05-14T05:57:06.090Z,8.60
2023-05-14T05:59:33.348Z,6.70
2023-05-14T06:02:00.485Z,7.80
2023-05-14T06:04:27.592Z,9.10
2023-05-14T06:06:54.719Z,5.90
2023-05-14T06:09:21.711Z,7.90
2023-05-14T06:11:48.733Z,7.00
2023-05-14T06:14:15.853Z,8.10
2023-05-14T06:16:42.918Z,8.60
2023-05-14T06:19:10.652Z,8.60
2023-05-14T06:21:38.313Z,11.00
2023-05-14T06:24:05.941Z,11.40
2023-05-14T06:26:33.045Z,8.00
2023-05-14T06:29:00.060Z,9.40
2023-05-14T06:31:27.311Z,12.40
2023-05-14T06:33:54.375Z,13.00
2023-05-14T06:36:21.421Z,11.00
2023-05-14T06:38:48.417Z,12.00
2023-05-14T06:41:15.722Z,7.70
2023-05-14T06:43:42.825Z,11.50
2023-05-14T06:46:09.777Z,11.70
2023-05-14T06:48:36.811Z,10.80
2023-05-14T06:51:04.051Z,8.30
2023-05-14T06:53:31.575Z,7.10
2023-05-14T06:55:58.600Z,9.40
2023-05-14T06:58:25.601Z,6.90
2023-05-14T07:00:52.642Z,7.60
2023-05-14T07:03:19.778Z,9.20
2023-05-14T07:05:46.896Z,6.30
2023-05-14T07:08:13.998Z,6.30
2023-05-14T07:10:41.069Z,8.10
2023-05-14T07:13:08.432Z,7.00
2023-05-14T07:15:35.605Z,6.60
2023-05-14T07:18:02.674Z,6.80
2023-05-14T07:20:29.703Z,6.70
2023-05-14T07:22:56.721Z,6.80
2023-05-14T07:25:23.747Z,8.00
2023-05-14T07:27:50.799Z,5.80
2023-05-14T07:30:17.854Z,4.70
2023-05-14T07:32:45.213Z,5.10
2023-05-14T07:35:12.341Z,4.00
2023-05-14T07:37:39.456Z,5.60
2023-05-14T07:40:07.409Z,5.10
2023-05-14T07:42:36.971Z,7.00
2023-05-14T07:45:05.245Z,5.00
2023-05-14T07:47:32.406Z,8.20
2023-05-14T07:49:59.681Z,6.50
2023-05-14T07:52:26.738Z,9.40
2023-05-14T07:54:53.909Z,6.80
2023-05-14T07:57:21.014Z,8.00
2023-05-14T07:59:48.469Z,5.70
2023-05-14T08:02:17.079Z,9.20
2023-05-14T08:04:44.678Z,5.40
2023-05-14T08:07:11.838Z,6.30
2023-05-14T08:09:38.933Z,8.00
2023-05-14T08:12:06.908Z,47.60
2023-05-14T08:14:34.062Z,7.90
2023-05-14T08:17:01.146Z,5.20
2023-05-14T08:19:28.657Z,7.10
2023-05-14T08:21:55.784Z,6.10
2023-05-14T08:24:22.879Z,7.70
2023-05-14T08:26:49.944Z,6.70
2023-05-14T08:29:16.998Z,8.70
2023-05-14T08:31:44.242Z,6.40
2023-05-14T08:34:11.244Z,5.30
2023-05-14T08:36:39.113Z,5.90
2023-05-14T08:39:07.974Z,6.20
2023-05-14T08:41:35.083Z,6.20
2023-05-14T08:44:15.151Z,6.80
2023-05-14T08:46:42.337Z,7.80
2023-05-14T08:49:37.649Z,6.90
2023-05-14T08:52:05.102Z,7.90
2023-05-14T08:54:32.821Z,7.80
2023-05-14T08:56:59.926Z,8.50
2023-05-14T08:59:27.009Z,6.50
2023-05-14T09:01:54.616Z,9.10
2023-05-14T09:04:23.363Z,7.20
2023-05-14T09:06:52.055Z,5.60
2023-05-14T09:09:19.455Z,9.00
2023-05-14T09:11:46.633Z,5.70
2023-05-14T09:14:13.671Z,5.70
2023-05-14T09:16:42.964Z,7.80
2023-05-14T09:19:10.125Z,5.60
2023-05-14T09:21:37.275Z,8.60
2023-05-14T09:24:04.513Z,5.30
2023-05-14T09:26:35.146Z,6.20
2023-05-14T09:29:02.909Z,6.10
2023-05-14T09:31:31.263Z,8.50
2023-05-14T09:33:58.639Z,4.80
2023-05-14T09:36:27.438Z,6.90
2023-05-14T09:38:58.262Z,6.90
2023-05-14T09:41:26.049Z,5.30
2023-05-14T09:43:53.281Z,5.00
2023-05-14T09:46:20.434Z,5.30
2023-05-14T09:48:47.578Z,7.70
2023-05-14T09:51:14.725Z,5.40
2023-05-14T09:53:42.077Z,5.60
2023-05-14T09:56:09.500Z,4.80
2023-05-14T09:58:36.619Z,5.60
2023-05-14T10:01:04.460Z,6.40
2023-05-14T10:03:31.610Z,5.10
2023-05-14T10:06:01.354Z,5.90
2023-05-14T10:08:34.295Z,4.60
2023-05-14T10:11:04.650Z,4.80
2023-05-14T10:13:42.449Z,5.80
2023-05-14T10:16:40.811Z,4.30
2023-05-14T10:19:11.802Z,6.30
2023-05-14T10:21:40.735Z,5.80
2023-05-14T10:24:08.801Z,6.80
2023-05-14T10:26:41.090Z,3.70
2023-05-14T10:29:10.280Z,5.90
2023-05-14T10:31:49.834Z,5.40
2023-05-14T10:34:41.320Z,4.30
2023-05-14T10:37:13.201Z,4.20
2023-05-14T10:39:43.918Z,5.00
2023-05-14T10:42:13.234Z,5.50
2023-05-14T10:45:02.563Z,3.50
2023-05-14T10:47:29.698Z,5.70
2023-05-14T10:49:59.223Z,5.70
2023-05-14T10:52:26.566Z,5.90
2023-05-14T10:54:58.781Z,4.70
2023-05-14T10:57:28.268Z,4.20
2023-05-14T10:59:56.454Z,6.50
2023-05-14T11:02:25.873Z,10.10
2023-05-14T11:04:59.909Z,7.40
2023-05-14T11:07:38.906Z,6.70
2023-05-14T11:10:20.357Z,14.50
2023-05-14T11:12:48.740Z,8.00
2023-05-14T11:15:22.566Z,10.60
2023-05-14T11:17:50.170Z,5.70
2023-05-14T11:20:17.634Z,5.10
2023-05-14T11:22:45.445Z,6.60
2023-05-14T11:25:15.144Z,4.60
2023-05-14T11:27:44.561Z,5.30
2023-05-14T11:30:19.711Z,6.40
2023-05-14T11:32:48.360Z,5.20
2023-05-14T11:35:16.292Z,3.90
2023-05-14T11:37:44.011Z,4.00
2023-05-14T11:40:18.377Z,4.20
2023-05-14T11:42:45.929Z,6.90
2023-05-14T11:45:13.750Z,5.80
2023-05-14T11:47:44.202Z,5.30
2023-05-14T11:50:11.590Z,6.20
2023-05-14T11:52:40.510Z,5.70
2023-05-14T11:55:11.659Z,4.10
2023-05-14T11:57:38.707Z,6.90
2023-05-14T12:00:09.298Z,7.10
2023-05-14T12:02:36.479Z,5.00
2023-05-14T12:05:07.473Z,7.00
2023-05-14T12:07:34.554Z,4.10
2023-05-14T12:10:02.805Z,10.20
2023-05-14T12:12:37.630Z,5.20
2023-05-14T12:15:12.859Z,4.80
2023-05-14T12:17:40.309Z,4.50
2023-05-14T12:20:11.232Z,3.40
2023-05-14T12:22:38.767Z,4.90
2023-05-14T12:25:12.583Z,5.10
2023-05-14T12:27:39.657Z,3.60
2023-05-14T12:30:20.679Z,4.50
2023-05-14T12:32:52.092Z,5.60
2023-05-14T12:35:19.387Z,9.10
2023-05-14T12:37:46.537Z,3.70
2023-05-14T12:40:14.109Z,3.40
2023-05-14T12:42:41.226Z,5.20
2023-05-14T12:45:21.380Z,6.40
2023-05-14T12:47:48.553Z,7.60
2023-05-14T12:50:16.642Z,3.90
2023-05-14T12:52:43.761Z,5.20
2023-05-14T12:55:11.259Z,11.40
2023-05-14T12:57:39.502Z,5.60
2023-05-14T13:00:08.701Z,7.00
2023-05-14T13:02:42.180Z,6.30
2023-05-14T13:05:11.454Z,6.70
2023-05-14T13:07:38.996Z,12.00
2023-05-14T13:10:06.951Z,10.70
2023-05-14T13:12:34.659Z,9.30
2023-05-14T13:15:01.770Z,8.30
2023-05-14T13:17:28.783Z,8.90
2023-05-14T13:19:55.831Z,8.60
2023-05-14T13:22:22.857Z,7.40
2023-05-14T13:24:49.818Z,4.90
2023-05-14T13:27:16.867Z,5.00
2023-05-14T13:29:44.078Z,7.20
2023-05-14T13:32:11.140Z,3.50
2023-05-14T13:34:38.177Z,7.60
2023-05-14T13:37:05.224Z,4.00
2023-05-14T13:39:32.220Z,5.30
2023-05-14T13:41:59.194Z,7.40
2023-05-14T13:44:26.292Z,8.40
2023-05-14T13:46:53.867Z,4.70
2023-05-14T13:49:21.439Z,7.80
2023-05-14T13:51:48.514Z,5.00
2023-05-14T13:54:15.615Z,4.10
2023-05-14T13:56:42.710Z,3.80
2023-05-14T13:59:09.732Z,3.00
2023-05-14T14:01:36.923Z,5.60
2023-05-14T14:04:03.993Z,3.00
2023-05-14T14:06:31.326Z,3.90
2023-05-14T14:08:58.815Z,2.40
2023-05-14T14:11:26.169Z,3.80
2023-05-14T14:13:53.645Z,3.80
2023-05-14T14:16:21.043Z,4.20
2023-05-14T14:18:48.231Z,5.30
2023-05-14T14:21:18.501Z,4.40
2023-05-14T14:23:49.101Z,4.90
2023-05-14T14:26:16.366Z,7.00
2023-05-14T14:28:43.525Z,5.00
2023-05-14T14:31:11.215Z,4.90
2023-05-14T14:33:38.279Z,13.10
2023-05-14T14:36:06.176Z,11.00
2023-05-14T14:38:33.227Z,5.90
2023-05-14T14:41:00.630Z,5.40
2023-05-14T14:43:27.624Z,15.80
2023-05-14T14:45:55.064Z,10.20
2023-05-14T14:48:40.251Z,7.90
2023-05-14T14:51:07.966Z,17.80
2023-05-14T14:53:38.943Z,70.30
2023-05-14T14:56:06.667Z,64.30
2023-05-14T14:58:33.909Z,14.60
2023-05-14T15:01:01.529Z,27.10
2023-05-14T15:03:29.111Z,44.70
2023-05-14T15:05:56.421Z,20.20
2023-05-14T15:08:30.004Z,13.40
2023-05-14T15:10:57.149Z,24.10
2023-05-14T15:13:24.885Z,17.40
2023-05-14T15:15:52.698Z,15.50
2023-05-14T15:18:19.985Z,18.00
2023-05-14T15:20:47.070Z,13.30
2023-05-14T15:23:14.116Z,12.90
2023-05-14T15:25:41.210Z,8.10
2023-05-14T15:28:08.343Z,8.30
2023-05-14T15:30:35.446Z,12.70
2023-05-14T15:33:02.628Z,12.70
2023-05-14T15:35:29.771Z,14.40
2023-05-14T15:37:59.562Z,13.70
2023-05-14T15:40:27.443Z,15.40
2023-05-14T15:42:54.818Z,18.70
2023-05-14T15:45:21.971Z,30.20
2023-05-14T15:47:49.009Z,26.60
2023-05-14T15:50:16.068Z,12.80
2023-05-14T15:52:43.179Z,9.30
2023-05-14T15:55:10.857Z,9.20
2023-05-14T15:57:37.971Z,8.70
2023-05-14T16:00:11.666Z,6.00
2023-05-14T16:02:39.732Z,8.20
2023-05-14T16:05:07.725Z,12.60
2023-05-14T16:07:34.860Z,11.30
2023-05-14T16:10:01.858Z,9.60
2023-05-14T16:12:28.926Z,9.70
2023-05-14T16:14:57.781Z,8.70
2023-05-14T16:17:26.653Z,8.10
2023-05-14T16:19:56.330Z,5.10
2023-05-14T16:22:23.879Z,6.00
2023-05-14T16:24:51.176Z,6.10
2023-05-14T16:27:21.058Z,5.20
2023-05-14T16:29:48.097Z,7.00
2023-05-14T16:32:15.226Z,5.60
2023-05-14T16:34:47.624Z,7.50
2023-05-14T16:37:15.617Z,5.60
2023-05-14T16:39:43.482Z,10.50
2023-05-14T16:42:11.022Z,9.60
2023-05-14T16:44:38.183Z,4.20
2023-05-14T16:47:05.627Z,3.90
2023-05-14T16:49:32.682Z,3.80
2023-05-14T16:51:59.770Z,6.30
2023-05-14T16:54:26.773Z,3.80
2023-05-14T16:56:53.837Z,2.60
2023-05-14T16:59:20.867Z,4.70
2023-05-14T17:01:48.471Z,4.50
2023-05-14T17:04:16.093Z,3.80
2023-05-14T17:06:43.147Z,3.30
2023-05-14T17:09:10.205Z,4.50
2023-05-14T17:11:37.349Z,3.50
2023-05-14T17:14:04.583Z,6.60
2023-05-14T17:16:31.694Z,6.20
2023-05-14T17:18:58.755Z,5.80
2023-05-14T17:21:26.535Z,3.90
2023-05-14T17:23:53.776Z,4.90
2023-05-14T17:26:21.485Z,5.10
2023-05-14T17:28:48.550Z,5.20
2023-05-14T17:31:15.753Z,4.20
2023-05-14T17:33:42.901Z,3.80
2023-05-14T17:36:10.012Z,7.30
2023-05-14T17:38:37.450Z,10.60
2023-05-14T17:41:04.547Z,4.70
2023-05-14T17:43:31.573Z,5.70
2023-05-14T17:45:59.005Z,8.30
2023-05-14T17:48:26.071Z,7.40
2023-05-14T17:50:53.060Z,8.00
2023-05-14T17:53:21.200Z,6.50
2023-05-14T17:55:48.397Z,5.50
2023-05-14T17:58:16.263Z,4.80
2023-05-14T18:00:43.934Z,4.90
2023-05-14T18:03:11.890Z,6.40
2023-05-14T18:05:39.364Z,6.50
2023-05-14T18:08:07.000Z,7.90
2023-05-14T18:10:34.529Z,17.30
2023-05-14T18:14:45.762Z,7.00
2023-05-14T18:17:13.082Z,5.40
2023-05-14T18:19:41.220Z,5.90
2023-05-14T18:22:08.239Z,5.00
2023-05-14T18:24:35.388Z,3.70
2023-05-14T18:27:02.488Z,4.40
2023-05-14T18:29:29.596Z,5.30
2023-05-14T18:31:56.970Z,4.30
2023-05-14T18:34:24.023Z,4.90
2023-05-14T18:36:51.178Z,5.00
2023-05-14T18:39:18.199Z,6.20
2023-05-14T18:41:45.244Z,5.30
2023-05-14T18:44:12.211Z,6.30
2023-05-14T18:46:39.452Z,8.70
2023-05-14T18:49:06.861Z,5.00
2023-05-14T18:51:33.933Z,8.40
2023-05-14T18:54:01.051Z,6.50
2023-05-14T18:56:28.102Z,10.20
2023-05-14T18:58:55.188Z,13.30
2023-05-14T19:01:25.758Z,17.50
2023-05-14T19:03:53.308Z,12.60
2023-05-14T19:06:20.465Z,10.90
2023-05-14T19:08:47.439Z,10.30
2023-05-14T19:11:14.484Z,7.70
2023-05-14T19:13:41.600Z,9.00
2023-05-14T19:16:08.679Z,8.30
2023-05-14T19:18:35.720Z,7.30
2023-05-14T19:21:03.122Z,7.60
2023-05-14T19:23:31.259Z,10.70
2023-05-14T19:25:58.448Z,7.20
2023-05-14T19:28:25.576Z,8.30
2023-05-14T19:30:53.608Z,8.60
2023-05-14T19:33:20.682Z,9.30
2023-05-14T19:35:47.792Z,7.40
2023-05-14T19:38:15.186Z,7.30
2023-05-14T19:40:43.657Z,8.10
2023-05-14T19:43:12.076Z,10.40
2023-05-14T19:45:39.380Z,6.10
2023-05-14T19:48:06.918Z,5.60
2023-05-14T19:50:34.283Z,8.50
2023-05-14T19:53:01.475Z,9.50
2023-05-14T19:55:28.592Z,5.30
2023-05-14T19:57:55.608Z,8.10
2023-05-14T20:00:23.015Z,5.50
2023-05-14T20:02:50.055Z,7.50
2023-05-14T20:05:17.220Z,7.20
2023-05-14T20:07:45.114Z,6.70
2023-05-14T20:10:12.183Z,7.30
2023-05-14T20:12:39.218Z,11.20
2023-05-14T20:15:06.532Z,9.80
2023-05-14T20:17:33.649Z,5.20
2023-05-14T20:20:01.677Z,7.50
2023-05-14T20:22:28.662Z,7.10
2023-05-14T20:24:56.072Z,7.90
2023-05-14T20:27:23.154Z,7.80
2023-05-14T20:29:51.662Z,8.20
2023-05-14T20:32:18.714Z,7.10
2023-05-14T20:34:45.671Z,8.80
2023-05-14T20:37:13.193Z,12.20
2023-05-14T20:39:40.319Z,10.60
2023-05-14T20:42:07.550Z,15.00
2023-05-14T20:44:34.608Z,9.10
2023-05-14T20:47:01.656Z,11.40
2023-05-14T20:49:28.687Z,10.00
2023-05-14T20:51:55.764Z,14.30
2023-05-14T20:54:22.811Z,7.80
2023-05-14T20:56:49.840Z,11.80
2023-05-14T20:59:16.897Z,10.80
2023-05-14T21:01:43.958Z,8.20
2023-05-14T21:04:11.555Z,12.00
2023-05-14T21:06:38.822Z,12.40
2023-05-14T21:09:05.797Z,10.60
2023-05-14T21:11:32.916Z,15.10
2023-05-14T21:13:59.892Z,8.70
2023-05-14T21:16:26.913Z,10.40
2023-05-14T21:18:54.017Z,13.20
2023-05-14T21:21:21.119Z,8.50
2023-05-14T21:23:48.186Z,12.70
2023-05-14T21:26:15.181Z,11.10
2023-05-14T21:28:42.206Z,12.60
2023-05-14T21:31:09.301Z,13.40
2023-05-14T21:33:36.344Z,16.00
2023-05-14T21:36:03.508Z,10.70
2023-05-14T21:38:31.899Z,12.20
2023-05-14T21:40:59.868Z,9.30
2023-05-14T21:43:27.296Z,13.90
2023-05-14T21:45:54.323Z,13.80
2023-05-14T21:48:21.748Z,8.80
2023-05-14T21:50:48.881Z,12.50
2023-05-14T21:53:15.921Z,15.50
2023-05-14T21:55:42.931Z,9.90
2023-05-14T21:58:09.903Z,12.90
2023-05-14T22:00:36.923Z,10.80
2023-05-14T22:03:04.294Z,13.40
2023-05-14T22:05:31.531Z,9.70
2023-05-14T22:07:58.652Z,10.20
2023-05-14T22:10:25.758Z,9.80
2023-05-14T22:12:52.810Z,13.00
2023-05-14T22:15:19.936Z,11.00
2023-05-14T22:17:47.699Z,10.70
2023-05-14T22:20:14.709Z,10.70
2023-05-14T22:22:41.671Z,10.00
2023-05-14T22:25:09.096Z,8.70
2023-05-14T22:27:36.073Z,8.60
2023-05-14T22:30:03.121Z,9.90
2023-05-14T22:32:30.143Z,9.50
2023-05-14T22:34:57.185Z,12.60
2023-05-14T22:37:24.183Z,8.70
2023-05-14T22:39:51.245Z,10.30
2023-05-14T22:42:20.444Z,9.40
2023-05-14T22:44:47.591Z,11.10
2023-05-14T22:47:14.651Z,12.50
2023-05-14T22:49:42.307Z,8.90
2023-05-14T22:52:09.361Z,9.10
2023-05-14T22:54:36.811Z,9.10
2023-05-14T22:57:04.036Z,8.50
2023-05-14T22:59:31.052Z,8.80
2023-05-14T23:01:58.084Z,12.40
2023-05-14T23:04:25.248Z,10.10
2023-05-14T23:06:52.340Z,7.60
2023-05-14T23:09:19.382Z,7.90
2023-05-14T23:11:46.519Z,10.30
2023-05-14T23:14:13.530Z,9.80
2023-05-14T23:16:40.578Z,10.50
2023-05-14T23:19:07.723Z,8.00
2023-05-14T23:21:34.887Z,8.50
2023-05-14T23:24:01.954Z,11.50
2023-05-14T23:26:28.959Z,10.50
2023-05-14T23:28:55.926Z,11.20
2023-05-14T23:31:23.025Z,9.50
2023-05-14T23:33:50.048Z,9.00
2023-05-14T23:36:17.098Z,10.20
2023-05-14T23:38:44.104Z,9.10
2023-05-14T23:41:11.135Z,9.80
2023-05-14T23:43:38.140Z,8.30
2023-05-14T23:46:05.237Z,9.90
2023-05-14T23:48:32.415Z,8.50
2023-05-14T23:50:59.634Z,9.30
2023-05-14T23:53:26.597Z,8.40
2023-05-14T23:55:53.606Z,8.40
2023-05-14T23:58:21.012Z,7.40
